Time;durP1;ratioP1;P1;durP2;ratioP2;P2;SDS_P1;SDS_P2;PMS_P1;PMS_P2;Temp;Humidity;BMP_temperature;BMP_pressure;BME280_temperature;BME280_humidity;BME280_pressure;Samples;Min_cycle;Max_cycle;Signal;HPM_P1;HPM_P2
2023/09/28 00:02:49;;;;;;;5.25;2.80;;;15.20;99.90;;;;;;5042772;28;20099;-77
2023/09/28 00:05:19;;;;;;;4.28;2.58;;;15.20;99.90;;;;;;5051706;28;20041;-77
2023/09/28 00:07:47;;;;;;;3.63;2.35;;;15.20;99.90;;;;;;5054076;28;20052;-77
2023/09/28 00:10:16;;;;;;;4.35;2.45;;;15.20;99.90;;;;;;5044956;28;20149;-77
2023/09/28 00:12:46;;;;;;;4.78;2.92;;;15.20;99.90;;;;;;5046623;28;20491;-76
2023/09/28 00:15:13;;;;;;;7.35;3.28;;;15.20;99.90;;;;;;5036409;28;20049;-76
2023/09/28 00:17:40;;;;;;;4.93;2.55;;;15.20;99.90;;;;;;5025082;28;20049;-77
2023/09/28 00:20:13;;;;;;;4.43;2.83;;;15.30;99.90;;;;;;5043846;28;20554;-76
2023/09/28 00:22:43;;;;;;;6.35;2.70;;;15.30;99.90;;;;;;5039700;28;20447;-76
2023/09/28 00:25:11;;;;;;;4.47;2.45;;;15.20;99.90;;;;;;5041077;28;20124;-76
2023/09/28 00:27:39;;;;;;;5.05;2.72;;;15.20;99.90;;;;;;5046296;28;20041;-76
2023/09/28 00:30:12;;;;;;;4.45;2.78;;;15.20;99.90;;;;;;5035832;28;20045;-77
2023/09/28 00:32:39;;;;;;;5.22;2.47;;;15.20;99.90;;;;;;5049232;28;20088;-76
2023/09/28 00:35:07;;;;;;;6.00;3.08;;;15.20;99.90;;;;;;5046840;28;20095;-76
2023/09/28 00:37:33;;;;;;;7.60;2.92;;;15.20;99.90;;;;;;5046465;28;20132;-76
2023/09/28 00:40:06;;;;;;;6.13;3.20;;;15.20;99.90;;;;;;5043304;28;20037;-77
2023/09/28 00:42:33;;;;;;;6.72;2.97;;;15.20;99.90;;;;;;5048785;28;20526;-76
2023/09/28 00:45:00;;;;;;;5.07;3.17;;;15.20;99.90;;;;;;5043322;28;20520;-76
2023/09/28 00:47:27;;;;;;;8.55;4.35;;;15.20;99.90;;;;;;5049530;28;20044;-76
2023/09/28 00:49:54;;;;;;;8.13;3.67;;;15.20;99.90;;;;;;5048514;28;20087;-77
2023/09/28 00:52:22;;;;;;;4.85;3.05;;;15.20;99.90;;;;;;5049828;28;20128;-76
2023/09/28 00:54:49;;;;;;;4.75;3.20;;;15.20;99.90;;;;;;5044945;28;20172;-76
2023/09/28 00:57:17;;;;;;;6.47;3.03;;;15.20;99.90;;;;;;5047754;28;20046;-76
2023/09/28 00:59:44;;;;;;;5.32;3.03;;;15.20;99.90;;;;;;5040334;28;20049;-76
2023/09/28 01:02:11;;;;;;;7.10;3.03;;;15.20;99.90;;;;;;5049202;28;20069;-76
2023/09/28 01:04:37;;;;;;;5.60;3.35;;;15.20;99.90;;;;;;5050387;28;20412;-76
2023/09/28 01:07:04;;;;;;;5.82;3.17;;;15.20;99.90;;;;;;5049980;28;20047;-77
2023/09/28 01:09:31;;;;;;;5.80;3.38;;;15.20;99.90;;;;;;5042032;28;20049;-77
2023/09/28 01:11:58;;;;;;;6.50;3.13;;;15.20;99.90;;;;;;5035988;28;20472;-76
2023/09/28 01:14:25;;;;;;;5.78;3.55;;;15.30;99.90;;;;;;5040537;28;20049;-76
2023/09/28 01:16:51;;;;;;;6.43;3.15;;;15.30;99.90;;;;;;5051422;28;20049;-76
2023/09/28 01:19:18;;;;;;;5.00;2.85;;;15.30;99.90;;;;;;5047852;28;20038;-77
2023/09/28 01:21:45;;;;;;;6.47;3.63;;;15.30;99.90;;;;;;5049805;28;20136;-76
2023/09/28 01:24:11;;;;;;;5.97;3.25;;;15.30;99.90;;;;;;5046596;28;20076;-76
2023/09/28 01:26:39;;;;;;;5.18;3.10;;;15.30;99.90;;;;;;5044777;28;20072;-76
2023/09/28 01:29:06;;;;;;;6.15;3.70;;;15.30;99.90;;;;;;5023144;28;20042;-77
2023/09/28 01:31:33;;;;;;;5.97;3.33;;;15.30;99.90;;;;;;5049161;28;20437;-76
2023/09/28 01:33:59;;;;;;;8.32;3.03;;;15.30;99.90;;;;;;5047977;28;20146;-76
2023/09/28 01:36:26;;;;;;;6.53;3.17;;;15.30;99.90;;;;;;5048907;28;20390;-77
2023/09/28 01:39:07;;;;;;;4.93;2.90;;;15.30;99.90;;;;;;5042731;28;20583;-76
2023/09/28 01:41:34;;;;;;;5.38;3.15;;;15.30;99.90;;;;;;5049950;28;20052;-77
2023/09/28 01:44:02;;;;;;;4.30;2.72;;;15.30;99.90;;;;;;5040937;28;20486;-76
2023/09/28 01:46:29;;;;;;;5.28;2.70;;;15.30;99.90;;;;;;5051454;28;20124;-76
2023/09/28 01:48:55;;;;;;;5.55;3.17;;;15.40;99.90;;;;;;5048342;28;20119;-76
2023/09/28 01:51:22;;;;;;;5.22;3.10;;;15.40;99.90;;;;;;5047217;28;20091;-76
2023/09/28 01:53:49;;;;;;;6.70;2.92;;;15.40;99.90;;;;;;5041574;28;20049;-77
2023/09/28 01:56:16;;;;;;;6.82;3.25;;;15.40;99.90;;;;;;5045728;28;20080;-77
2023/09/28 01:58:43;;;;;;;5.55;2.60;;;15.40;99.90;;;;;;5047347;28;20136;-76
2023/09/28 02:01:19;;;;;;;6.03;3.20;;;15.50;99.90;;;;;;5051816;28;20046;-76
2023/09/28 02:03:46;;;;;;;3.97;2.63;;;15.50;99.90;;;;;;5046376;28;20469;-76
2023/09/28 02:06:14;;;;;;;4.93;3.35;;;15.50;99.90;;;;;;5046793;28;20044;-76
2023/09/28 02:08:41;;;;;;;8.80;3.85;;;15.50;99.90;;;;;;5042034;28;20073;-76
2023/09/28 02:11:09;;;;;;;9.38;3.53;;;15.50;99.90;;;;;;5026357;28;20102;-76
2023/09/28 02:13:36;;;;;;;6.20;3.35;;;15.50;99.90;;;;;;5050784;28;20131;-76
2023/09/28 02:16:08;;;;;;;7.03;3.40;;;15.50;99.90;;;;;;5044890;28;20047;-76
2023/09/28 02:18:35;;;;;;;5.80;3.20;;;15.50;99.90;;;;;;5043546;28;20496;-76
2023/09/28 02:21:03;;;;;;;6.15;3.35;;;15.60;99.90;;;;;;5047616;28;20036;-76
2023/09/28 02:23:29;;;;;;;5.85;3.53;;;15.60;99.90;;;;;;5039143;28;20504;-76
2023/09/28 02:26:05;;;;;;;9.18;4.53;;;15.60;99.90;;;;;;5043627;28;20044;-76
2023/09/28 02:28:32;;;;;;;7.32;3.13;;;15.60;99.90;;;;;;5049501;28;20099;-77
2023/09/28 02:31:06;;;;;;;4.95;2.80;;;15.60;99.90;;;;;;5051434;28;20048;-76
2023/09/28 02:33:33;;;;;;;8.23;3.70;;;15.60;99.90;;;;;;5042629;28;20077;-77
2023/09/28 02:36:00;;;;;;;4.60;3.00;;;15.60;99.90;;;;;;5029253;28;20071;-77
2023/09/28 02:38:28;;;;;;;5.22;3.13;;;15.60;99.90;;;;;;5038180;28;20072;-76
2023/09/28 02:40:55;;;;;;;5.03;3.22;;;15.60;99.90;;;;;;5045120;28;20128;-76
2023/09/28 02:43:22;;;;;;;7.70;3.13;;;15.60;99.90;;;;;;5048765;28;20472;-76
2023/09/28 02:45:48;;;;;;;6.60;3.20;;;15.60;99.90;;;;;;5049594;28;20508;-76
2023/09/28 02:48:16;;;;;;;5.57;3.00;;;15.60;99.90;;;;;;5041951;28;20515;-77
2023/09/28 02:50:43;;;;;;;6.70;2.78;;;15.60;99.90;;;;;;5044667;28;20107;-77
2023/09/28 02:53:10;;;;;;;6.82;3.28;;;15.60;99.90;;;;;;5038815;28;20080;-76
2023/09/28 02:55:37;;;;;;;3.83;2.55;;;15.60;99.90;;;;;;5047576;28;20071;-76
2023/09/28 02:58:04;;;;;;;7.90;3.22;;;15.70;99.90;;;;;;5045996;28;20049;-76
2023/09/28 03:00:33;;;;;;;5.93;3.00;;;15.60;99.90;;;;;;5047912;28;20049;-76
2023/09/28 03:03:03;;;;;;;4.18;2.60;;;15.70;99.90;;;;;;5043535;28;20036;-77
2023/09/28 03:05:29;;;;;;;7.05;2.70;;;15.70;99.90;;;;;;5046292;28;20434;-76
2023/09/28 03:07:58;;;;;;;7.10;3.40;;;15.70;99.90;;;;;;5038952;28;20104;-76
2023/09/28 03:10:25;;;;;;;6.85;2.83;;;15.80;99.90;;;;;;5028503;28;20562;-77
2023/09/28 03:12:56;;;;;;;;;;;15.80;99.90;;;;;;5049199;28;20049;-76
2023/09/28 03:15:24;;;;;;;4.22;2.88;;;15.80;99.90;;;;;;5046796;28;20004;-77
2023/09/28 03:17:51;;;;;;;5.28;2.90;;;15.80;99.90;;;;;;5035622;28;20128;-76
2023/09/28 03:20:19;;;;;;;4.57;2.95;;;15.80;99.90;;;;;;5043920;28;20072;-76
2023/09/28 03:22:47;;;;;;;4.85;3.00;;;15.80;99.90;;;;;;5038895;28;20128;-76
2023/09/28 03:25:17;;;;;;;4.85;2.80;;;15.80;99.90;;;;;;5045947;28;20557;-76
2023/09/28 03:27:50;;;;;;;6.18;2.85;;;15.80;99.90;;;;;;5046644;28;20083;-76
2023/09/28 03:30:20;;;;;;;4.22;2.75;;;15.80;99.90;;;;;;5047059;28;20064;-76
2023/09/28 03:32:47;;;;;;;6.25;3.05;;;15.90;99.90;;;;;;5040219;28;20076;-76
2023/09/28 03:35:16;;;;;;;5.90;3.10;;;15.90;99.90;;;;;;5042915;28;20099;-76
2023/09/28 03:37:43;;;;;;;5.75;2.92;;;15.90;99.90;;;;;;5039192;28;20045;-76
2023/09/28 03:40:12;;;;;;;5.53;2.97;;;15.90;99.90;;;;;;5048664;28;20040;-76
2023/09/28 03:42:49;;;;;;;4.70;2.70;;;15.90;99.90;;;;;;5027021;28;20043;-77
2023/09/28 03:45:20;;;;;;;11.43;3.13;;;15.90;99.90;;;;;;5043828;28;20179;-77
2023/09/28 03:47:50;;;;;;;8.80;3.35;;;15.90;99.90;;;;;;5039110;28;20049;-77
2023/09/28 03:50:19;;;;;;;5.88;3.65;;;15.90;99.90;;;;;;5024105;28;20048;-76
2023/09/28 03:52:46;;;;;;;8.85;3.75;;;15.90;99.90;;;;;;5043938;28;20098;-76
2023/09/28 03:55:15;;;;;;;4.88;2.58;;;16.00;99.90;;;;;;5050990;28;20040;-76
2023/09/28 03:57:42;;;;;;;6.47;2.97;;;16.00;99.90;;;;;;5043195;28;20132;-76
2023/09/28 04:00:12;;;;;;;6.38;3.42;;;16.00;99.90;;;;;;5041440;28;20510;-76
2023/09/28 04:02:44;;;;;;;4.65;3.10;;;16.00;99.90;;;;;;5037813;28;20048;-76
2023/09/28 04:05:14;;;;;;;5.68;3.63;;;16.00;99.90;;;;;;5045354;28;20076;-76
2023/09/28 04:07:41;;;;;;;5.28;3.38;;;16.00;99.90;;;;;;5032088;28;20045;-76
2023/09/28 04:10:09;;;;;;;7.53;3.20;;;16.00;99.90;;;;;;5050655;28;20131;-76
2023/09/28 04:12:36;;;;;;;6.70;3.08;;;16.10;99.90;;;;;;5042679;28;20046;-76
2023/09/28 04:15:03;;;;;;;5.15;3.45;;;16.10;99.90;;;;;;5047149;28;20060;-76
2023/09/28 04:17:30;;;;;;;5.85;3.20;;;16.10;99.90;;;;;;5036274;28;20580;-77
2023/09/28 04:19:57;;;;;;;4.85;2.83;;;16.10;99.90;;;;;;5045788;28;20088;-75
2023/09/28 04:22:24;;;;;;;5.63;3.53;;;16.10;99.90;;;;;;5046330;28;20037;-76
2023/09/28 04:24:51;;;;;;;8.40;3.60;;;16.10;99.90;;;;;;5048190;28;20068;-76
2023/09/28 04:27:17;;;;;;;8.52;3.92;;;16.10;99.90;;;;;;5042277;28;20045;-75
2023/09/28 04:29:44;;;;;;;7.70;3.70;;;16.00;99.90;;;;;;5045288;28;20081;-77
2023/09/28 04:32:11;;;;;;;5.38;3.35;;;16.00;99.90;;;;;;5037557;28;20050;-77
2023/09/28 04:34:39;;;;;;;5.72;3.50;;;16.00;99.90;;;;;;5044264;28;20049;-77
2023/09/28 04:37:06;;;;;;;8.00;3.60;;;16.00;99.90;;;;;;5049974;28;20056;-77
2023/09/28 04:39:34;;;;;;;11.23;5.10;;;15.90;99.90;;;;;;5048461;28;20057;-77
2023/09/28 04:42:00;;;;;;;10.32;4.97;;;15.90;99.90;;;;;;5044898;28;20107;-76
2023/09/28 04:44:27;;;;;;;8.70;4.47;;;15.90;99.90;;;;;;5026824;28;20164;-76
2023/09/28 04:46:54;;;;;;;9.05;4.78;;;15.90;99.90;;;;;;5038253;28;20460;-77
2023/09/28 04:49:21;;;;;;;6.68;4.28;;;15.80;99.90;;;;;;5045443;28;20040;-77
2023/09/28 04:51:48;;;;;;;5.05;3.33;;;15.80;99.90;;;;;;5049004;28;20509;-77
2023/09/28 04:54:15;;;;;;;7.25;3.67;;;15.80;99.90;;;;;;5046011;28;20694;-76
2023/09/28 04:56:43;;;;;;;5.03;3.35;;;15.80;99.90;;;;;;5042370;28;20173;-75
2023/09/28 04:59:10;;;;;;;4.88;3.08;;;15.80;99.90;;;;;;5045347;28;20504;-77
2023/09/28 05:01:37;;;;;;;7.20;3.75;;;15.80;99.90;;;;;;5037401;28;20038;-76
2023/09/28 05:04:04;;;;;;;8.85;5.30;;;15.80;99.90;;;;;;5043408;28;20140;-77
2023/09/28 05:06:30;;;;;;;8.18;4.00;;;15.80;99.90;;;;;;5046653;28;20083;-76
2023/09/28 05:08:57;;;;;;;5.88;3.70;;;15.80;99.90;;;;;;5047185;28;20045;-77
2023/09/28 05:11:24;;;;;;;7.70;4.80;;;15.80;99.90;;;;;;5040499;28;20054;-76
2023/09/28 05:13:51;;;;;;;7.75;4.70;;;15.90;99.90;;;;;;5042266;28;20055;-76
2023/09/28 05:16:19;;;;;;;12.10;6.47;;;15.90;99.90;;;;;;5038395;28;20080;-76
2023/09/28 05:18:46;;;;;;;7.10;4.75;;;15.90;99.90;;;;;;5040074;28;20420;-77
2023/09/28 05:21:13;;;;;;;6.05;4.10;;;15.90;99.90;;;;;;5049262;28;20428;-76
2023/09/28 05:23:42;;;;;;;7.57;4.70;;;15.90;99.90;;;;;;5045583;28;20052;-76
2023/09/28 05:26:09;;;;;;;9.98;4.53;;;16.00;99.90;;;;;;5042993;28;20052;-76
2023/09/28 05:28:35;;;;;;;8.77;3.92;;;16.00;99.90;;;;;;5044308;28;20041;-77
2023/09/28 05:31:03;;;;;;;8.93;4.35;;;16.00;99.90;;;;;;5042953;28;20049;-77
2023/09/28 05:33:31;;;;;;;9.25;4.28;;;16.00;99.90;;;;;;5050830;28;20136;-77
2023/09/28 05:35:58;;;;;;;7.07;4.22;;;16.00;99.90;;;;;;5052095;28;20053;-77
2023/09/28 05:38:24;;;;;;;11.35;5.03;;;16.00;99.90;;;;;;5040559;28;20724;-77
2023/09/28 05:40:51;;;;;;;10.38;4.70;;;16.00;99.90;;;;;;5042454;28;20633;-76
2023/09/28 05:43:18;;;;;;;5.65;3.63;;;16.00;99.90;;;;;;5047475;28;20045;-77
2023/09/28 05:45:45;;;;;;;6.22;4.40;;;16.00;99.90;;;;;;5042592;28;20076;-77
2023/09/28 05:48:11;;;;;;;9.63;5.05;;;16.00;99.90;;;;;;5055981;28;20044;-77
2023/09/28 05:50:38;;;;;;;7.93;4.50;;;16.10;99.90;;;;;;5047795;28;20037;-77
2023/09/28 05:53:05;;;;;;;9.38;5.15;;;16.10;99.90;;;;;;5050375;28;20052;-77
2023/09/28 05:55:31;;;;;;;9.38;4.38;;;16.10;99.90;;;;;;5041128;28;20054;-77
2023/09/28 05:57:58;;;;;;;11.82;4.43;;;16.10;99.90;;;;;;5045346;28;20052;-77
2023/09/28 06:00:25;;;;;;;8.75;4.03;;;16.10;99.90;;;;;;5043273;28;20068;-77
2023/09/28 06:02:52;;;;;;;9.52;4.20;;;16.10;99.90;;;;;;5049590;28;20046;-77
2023/09/28 06:05:18;;;;;;;6.75;4.05;;;16.00;99.90;;;;;;5045285;28;20414;-78
2023/09/28 06:07:45;;;;;;;8.02;4.63;;;16.00;99.90;;;;;;5047295;28;20042;-77
2023/09/28 06:10:13;;;;;;;6.05;3.60;;;16.00;99.90;;;;;;5044804;28;20052;-77
2023/09/28 06:12:39;;;;;;;6.70;4.20;;;16.00;99.90;;;;;;5042797;28;20045;-77
2023/09/28 06:15:08;;;;;;;5.70;3.17;;;16.00;99.90;;;;;;5027482;28;20555;-77
2023/09/28 06:17:35;;;;;;;8.88;4.10;;;15.90;99.90;;;;;;5054773;28;20098;-77
2023/09/28 06:20:05;;;;;;;8.30;4.20;;;15.90;99.90;;;;;;5049815;28;20119;-77
2023/09/28 06:22:33;;;;;;;19.75;5.35;;;15.90;99.90;;;;;;5036777;28;20084;-77
2023/09/28 06:25:00;;;;;;;6.15;3.92;;;15.90;99.90;;;;;;5044926;28;20052;-78
2023/09/28 06:27:28;;;;;;;7.88;4.55;;;15.90;99.90;;;;;;5040545;28;20130;-77
2023/09/28 06:29:56;;;;;;;11.27;4.10;;;15.90;99.90;;;;;;5049847;28;20099;-78
2023/09/28 06:32:23;;;;;;;7.82;3.40;;;15.80;99.90;;;;;;5054808;28;20048;-78
2023/09/28 06:34:50;;;;;;;9.35;4.50;;;15.80;99.90;;;;;;5044985;28;20547;-77
2023/09/28 06:37:17;;;;;;;8.50;4.25;;;15.80;99.90;;;;;;5047499;28;20064;-78
2023/09/28 06:39:43;;;;;;;13.10;4.93;;;15.70;99.90;;;;;;5041909;28;20410;-76
2023/09/28 06:42:10;;;;;;;6.10;3.05;;;15.80;99.90;;;;;;5039730;28;20471;-77
2023/09/28 06:44:57;;;;;;;9.10;3.78;;;15.70;99.90;;;;;;5052842;28;20041;-77
2023/09/28 06:47:24;;;;;;;8.82;3.28;;;15.70;99.90;;;;;;5053184;28;20041;-77
2023/09/28 06:50:04;;;;;;;8.90;3.30;;;15.80;99.90;;;;;;5048122;28;20045;-77
2023/09/28 06:52:32;;;;;;;10.57;4.10;;;15.80;99.90;;;;;;5050018;28;20041;-77
2023/09/28 06:54:59;;;;;;;5.63;3.33;;;15.80;99.90;;;;;;5043496;28;20099;-77
2023/09/28 06:57:27;;;;;;;4.43;3.10;;;15.80;99.90;;;;;;5042939;28;20048;-77
2023/09/28 06:59:54;;;;;;;11.52;3.72;;;15.90;99.90;;;;;;5050343;28;20056;-78
2023/09/28 07:02:21;;;;;;;8.60;4.10;;;15.90;99.90;;;;;;5052367;28;20048;-77
2023/09/28 07:04:48;;;;;;;10.40;3.40;;;15.90;99.90;;;;;;5042258;28;20065;-78
2023/09/28 07:07:17;;;;;;;8.27;3.22;;;16.00;99.90;;;;;;5047521;28;20041;-77
2023/09/28 07:09:44;;;;;;;6.67;3.43;;;16.00;99.90;;;;;;5041821;28;20050;-77
2023/09/28 07:12:23;;;;;;;7.40;3.55;;;16.10;99.90;;;;;;5047668;28;20443;-77
2023/09/28 07:14:50;;;;;;;5.95;3.63;;;16.20;99.90;;;;;;5050136;28;20064;-77
2023/09/28 07:17:16;;;;;;;6.80;3.78;;;16.20;99.90;;;;;;5051067;28;20045;-77
2023/09/28 07:19:43;;;;;;;8.20;3.90;;;16.30;99.90;;;;;;5042062;28;20103;-77
2023/09/28 07:22:11;;;;;;;10.85;4.57;;;16.30;99.90;;;;;;5047360;28;20688;-78
2023/09/28 07:24:38;;;;;;;13.70;4.95;;;16.40;99.90;;;;;;5042056;28;20057;-77
2023/09/28 07:27:04;;;;;;;9.02;4.13;;;16.50;99.90;;;;;;5027345;28;20591;-78
2023/09/28 07:29:32;;;;;;;13.52;5.00;;;16.50;99.90;;;;;;5048909;28;20064;-77
2023/09/28 07:31:59;;;;;;;14.52;5.10;;;16.60;99.90;;;;;;5045516;28;20501;-78
2023/09/28 07:34:26;;;;;;;10.82;4.38;;;16.70;99.90;;;;;;5042954;28;20049;-77
2023/09/28 07:36:53;;;;;;;8.18;3.90;;;16.70;99.90;;;;;;5043366;28;20505;-77
2023/09/28 07:39:20;;;;;;;6.35;3.65;;;16.80;99.90;;;;;;5042168;28;20101;-77
2023/09/28 07:41:47;;;;;;;6.80;3.90;;;16.80;99.90;;;;;;5040511;28;20045;-77
2023/09/28 07:44:14;;;;;;;10.77;4.07;;;16.90;99.90;;;;;;5050526;28;20053;-78
2023/09/28 07:46:41;;;;;;;8.20;3.78;;;16.90;99.90;;;;;;5046808;28;20099;-77
2023/09/28 07:49:08;;;;;;;10.93;3.80;;;16.90;99.90;;;;;;5045195;28;20701;-77
2023/09/28 07:51:35;;;;;;;8.48;4.25;;;17.00;99.90;;;;;;5040803;28;20041;-77
2023/09/28 07:54:01;;;;;;;12.20;4.50;;;17.10;99.90;;;;;;5040157;28;20046;-77
2023/09/28 07:56:28;;;;;;;5.38;3.38;;;17.10;99.90;;;;;;5048007;28;20557;-77
2023/09/28 07:58:57;;;;;;;7.25;3.35;;;17.20;99.90;;;;;;5046363;28;20053;-77
2023/09/28 08:01:26;;;;;;;4.05;2.97;;;17.30;99.90;;;;;;5032354;28;20053;-77
2023/09/28 08:03:53;;;;;;;3.80;2.70;;;17.30;99.90;;;;;;5041480;28;20057;-78
2023/09/28 08:06:20;;;;;;;6.75;2.92;;;17.40;99.90;;;;;;5028718;28;20124;-77
2023/09/28 08:08:56;;;;;;;6.40;3.15;;;17.60;99.90;;;;;;5041430;28;20045;-77
2023/09/28 08:11:24;;;;;;;5.45;3.30;;;17.60;99.90;;;;;;5055254;28;20053;-78
2023/09/28 08:13:50;;;;;;;7.20;2.90;;;17.70;99.90;;;;;;5046904;28;20393;-78
2023/09/28 08:16:17;;;;;;;5.35;3.45;;;17.80;99.90;;;;;;5049931;28;20091;-77
2023/09/28 08:18:46;;;;;;;4.80;3.00;;;17.90;99.90;;;;;;5040897;28;20056;-78
2023/09/28 08:21:13;;;;;;;9.82;2.88;;;18.00;99.90;;;;;;5043899;28;20455;-78
2023/09/28 08:23:40;;;;;;;4.85;3.00;;;18.10;99.90;;;;;;5045402;28;20041;-77
2023/09/28 08:26:08;;;;;;;5.90;2.70;;;18.20;99.90;;;;;;5051657;28;20053;-77
2023/09/28 08:28:35;;;;;;;5.00;2.70;;;18.30;99.90;;;;;;5046661;28;20040;-78
2023/09/28 08:31:05;;;;;;;8.63;3.00;;;18.40;99.90;;;;;;5046013;28;20149;-77
2023/09/28 08:33:32;;;;;;;5.68;2.72;;;18.50;99.90;;;;;;5040472;28;20482;-78
2023/09/28 08:35:59;;;;;;;4.22;3.03;;;18.60;99.90;;;;;;5041893;28;20089;-78
2023/09/28 08:38:25;;;;;;;4.32;2.85;;;18.60;99.90;;;;;;5045306;28;20056;-77
2023/09/28 08:41:01;;;;;;;4.25;2.60;;;18.70;99.90;;;;;;5049723;28;20425;-77
2023/09/28 08:43:32;;;;;;;6.93;3.45;;;18.80;99.90;;;;;;5047501;28;20048;-77
2023/09/28 08:46:02;;;;;;;4.97;3.08;;;18.90;99.90;;;;;;5045730;28;20050;-78
2023/09/28 08:48:30;;;;;;;8.75;3.30;;;19.00;99.90;;;;;;5043056;28;20040;-78
2023/09/28 08:51:09;;;;;;;5.68;2.80;;;19.10;99.90;;;;;;5040912;28;20053;-77
2023/09/28 08:53:40;;;;;;;6.40;2.97;;;19.10;99.90;;;;;;5048327;28;20049;-78
2023/09/28 08:56:08;;;;;;;5.72;2.97;;;19.20;99.90;;;;;;5047722;28;20084;-77
2023/09/28 08:58:36;;;;;;;4.93;2.50;;;19.30;99.90;;;;;;5046268;28;20075;-77
2023/09/28 09:01:07;;;;;;;6.10;2.92;;;19.40;99.90;;;;;;5048692;28;20484;-78
2023/09/28 09:03:36;;;;;;;6.55;3.25;;;19.40;99.90;;;;;;5044869;28;20048;-78
2023/09/28 09:06:06;;;;;;;4.40;2.97;;;19.50;99.90;;;;;;5045649;28;20053;-78
2023/09/28 09:08:35;;;;;;;;;;;19.70;99.90;;;;;;5054288;28;20041;-78
2023/09/28 09:11:02;;;;;;;4.72;2.83;;;19.70;99.90;;;;;;5053027;28;19928;-78
2023/09/28 09:13:29;;;;;;;6.22;2.65;;;19.80;99.90;;;;;;5050318;28;20044;-78
2023/09/28 09:15:56;;;;;;;5.50;3.28;;;19.80;99.90;;;;;;5048598;28;20050;-78
2023/09/28 09:18:27;;;;;;;8.18;2.97;;;19.90;99.90;;;;;;5045734;28;20049;-78
2023/09/28 09:20:58;;;;;;;5.75;2.85;;;19.90;99.90;;;;;;5045949;28;20053;-78
2023/09/28 09:23:25;;;;;;;;;;;20.00;99.90;;;;;;5055944;28;20045;-77
2023/09/28 09:25:55;;;;;;;4.55;2.90;;;20.00;99.90;;;;;;5052599;28;19928;-78
2023/09/28 09:28:32;;;;;;;4.57;3.00;;;20.10;99.90;;;;;;5049215;28;20053;-77
2023/09/28 09:30:59;;;;;;;5.18;2.85;;;20.20;99.90;;;;;;5051642;28;20083;-77
2023/09/28 09:33:26;;;;;;;5.40;3.22;;;20.30;99.90;;;;;;5044995;28;20049;-77
2023/09/28 09:35:53;;;;;;;8.25;3.28;;;20.40;99.90;;;;;;5050530;28;20103;-78
2023/09/28 09:38:30;;;;;;;5.30;3.28;;;20.50;99.90;;;;;;5053988;28;20053;-78
2023/09/28 09:41:04;;;;;;;6.38;3.15;;;20.60;99.90;;;;;;5052761;28;20056;-78
2023/09/28 09:43:36;;;;;;;7.90;2.88;;;20.70;99.90;;;;;;5047732;28;20043;-77
2023/09/28 09:46:06;;;;;;;6.15;3.22;;;20.80;99.90;;;;;;5050670;28;20091;-77
2023/09/28 09:48:37;;;;;;;;;;;20.90;99.90;;;;;;5044248;28;20131;-78
2023/09/28 09:51:12;;;;;;;4.47;3.03;;;21.00;99.90;;;;;;5053248;28;20019;-77
2023/09/28 09:53:40;;;;;;;6.45;3.20;;;21.10;99.90;;;;;;5049184;28;20048;-77
2023/09/28 09:56:09;;;;;;;3.85;2.90;;;21.20;99.90;;;;;;5050496;28;20057;-77
2023/09/28 09:58:48;;;;;;;3.80;2.80;;;21.20;99.90;;;;;;5044644;28;20045;-77
2023/09/28 10:01:19;;;;;;;4.53;2.58;;;21.20;99.90;;;;;;5050275;28;20200;-77
2023/09/28 10:03:48;;;;;;;4.57;2.72;;;21.30;99.90;;;;;;5045675;28;20041;-77
2023/09/28 10:06:16;;;;;;;4.60;3.13;;;21.30;99.90;;;;;;5055253;28;20076;-77
2023/09/28 10:08:45;;;;;;;6.97;3.13;;;21.40;99.90;;;;;;5039597;28;20099;-77
2023/09/28 10:11:13;;;;;;;4.30;2.90;;;21.40;99.90;;;;;;5032531;28;20046;-77
2023/09/28 10:13:40;;;;;;;5.20;3.10;;;21.50;99.90;;;;;;5043773;28;20053;-77
2023/09/28 10:16:09;;;;;;;4.80;2.72;;;21.50;99.90;;;;;;5051304;28;20188;-77
2023/09/28 10:18:37;;;;;;;3.75;2.55;;;21.50;99.90;;;;;;5046277;28;20045;-78
2023/09/28 10:21:05;;;;;;;5.70;3.00;;;21.50;99.90;;;;;;5050075;28;20060;-77
2023/09/28 10:23:31;;;;;;;5.88;3.13;;;21.50;99.90;;;;;;5050842;28;20420;-77
2023/09/28 10:26:06;;;;;;;4.97;2.75;;;21.50;99.90;;;;;;5050468;28;20053;-77
2023/09/28 10:28:56;;;;;;;10.43;3.25;;;21.60;99.90;;;;;;5043028;28;20045;-77
2023/09/28 10:31:23;;;;;;;4.70;2.50;;;21.60;99.90;;;;;;5049275;28;20048;-77
2023/09/28 10:34:02;;;;;;;4.75;3.35;;;21.60;99.90;;;;;;5051127;28;20045;-78
2023/09/28 10:36:32;;;;;;;4.78;2.95;;;21.70;99.90;;;;;;5053910;28;20053;-77
2023/09/28 10:39:14;;;;;;;;;;;21.70;99.90;;;;;;5036563;28;20053;-77
2023/09/28 10:41:51;;;;;;;5.53;2.92;;;21.70;99.90;;;;;;5047071;28;20429;-77
2023/09/28 10:44:20;;;;;;;5.10;2.97;;;21.80;99.90;;;;;;5042340;28;20456;-77
2023/09/28 10:46:49;;;;;;;6.90;3.10;;;21.80;99.90;;;;;;5050035;28;20049;-78
2023/09/28 10:49:28;;;;;;;5.20;3.40;;;21.80;99.90;;;;;;5054374;28;20088;-78
2023/09/28 10:51:56;;;;;;;4.35;2.60;;;21.90;99.90;;;;;;5048359;28;20107;-77
2023/09/28 10:54:26;;;;;;;8.90;3.42;;;21.90;99.90;;;;;;5050359;28;20053;-77
2023/09/28 10:56:53;;;;;;;7.07;2.88;;;22.00;99.90;;;;;;5036347;28;20167;-77
2023/09/28 10:59:21;;;;;;;5.60;2.63;;;22.00;99.90;;;;;;5046112;28;20052;-77
2023/09/28 11:01:48;;;;;;;8.02;3.67;;;22.10;99.90;;;;;;5053622;28;20527;-77
2023/09/28 11:04:16;;;;;;;6.35;3.17;;;22.10;99.90;;;;;;5052973;28;20093;-77
2023/09/28 11:06:43;;;;;;;5.25;2.85;;;22.10;99.90;;;;;;5049690;28;20079;-76
2023/09/28 11:09:12;;;;;;;6.28;3.25;;;22.20;99.90;;;;;;5030595;28;20050;-77
2023/09/28 11:11:40;;;;;;;5.32;2.95;;;22.20;99.90;;;;;;5047367;28;20068;-78
2023/09/28 11:14:07;;;;;;;7.13;3.13;;;22.30;99.90;;;;;;5043916;28;20053;-77
2023/09/28 11:16:34;;;;;;;4.45;2.80;;;22.40;99.90;;;;;;5052501;28;20057;-78
2023/09/28 11:19:02;;;;;;;4.45;3.00;;;22.50;99.90;;;;;;5052304;28;20053;-77
2023/09/28 11:21:29;;;;;;;4.30;2.85;;;22.50;99.90;;;;;;5049566;28;20050;-77
2023/09/28 11:23:56;;;;;;;3.70;2.85;;;22.60;99.90;;;;;;5043052;28;20102;-78
2023/09/28 11:26:23;;;;;;;7.78;3.25;;;22.60;99.90;;;;;;5046700;28;20049;-77
2023/09/28 11:28:51;;;;;;;4.70;3.28;;;22.70;99.90;;;;;;5040440;28;20094;-78
2023/09/28 11:31:18;;;;;;;4.55;2.90;;;22.80;99.90;;;;;;5035831;28;20072;-77
2023/09/28 11:33:46;;;;;;;3.55;2.72;;;22.90;99.90;;;;;;5053969;28;20114;-78
2023/09/28 11:36:21;;;;;;;6.35;2.72;;;23.00;99.90;;;;;;5046043;28;20053;-77
2023/09/28 11:38:49;;;;;;;5.65;3.33;;;23.00;99.90;;;;;;5045660;28;20055;-77
2023/09/28 11:41:16;;;;;;;6.45;3.38;;;23.00;99.90;;;;;;5045123;28;20087;-77
2023/09/28 11:43:46;;;;;;;4.75;2.90;;;23.00;99.90;;;;;;5042920;28;20087;-77
2023/09/28 11:46:18;;;;;;;5.97;2.75;;;23.10;99.90;;;;;;5051050;28;20104;-77
2023/09/28 11:48:45;;;;;;;4.75;3.13;;;23.10;99.90;;;;;;5051680;28;20059;-77
2023/09/28 11:51:15;;;;;;;3.38;2.55;;;23.10;99.90;;;;;;5044806;28;20564;-77
2023/09/28 11:53:42;;;;;;;5.18;2.70;;;23.00;99.90;;;;;;5046477;28;20139;-77
2023/09/28 11:56:10;;;;;;;3.95;2.63;;;23.00;99.90;;;;;;5044986;28;20123;-77
2023/09/28 11:58:37;;;;;;;5.18;2.97;;;23.10;99.90;;;;;;5046153;28;20057;-77
2023/09/28 12:01:05;;;;;;;4.07;2.33;;;23.10;99.90;;;;;;5049721;28;20536;-77
2023/09/28 12:03:32;;;;;;;4.95;2.67;;;23.00;99.90;;;;;;5052408;28;20041;-77
2023/09/28 12:05:59;;;;;;;3.60;2.42;;;23.00;99.90;;;;;;5044565;28;20133;-78
2023/09/28 12:08:25;;;;;;;13.98;3.10;;;23.00;99.90;;;;;;5046527;28;20079;-78
2023/09/28 12:10:52;;;;;;;5.13;2.92;;;23.00;99.90;;;;;;5044754;28;20092;-77
2023/09/28 12:13:22;;;;;;;5.10;2.50;;;22.90;99.90;;;;;;5044413;28;20045;-78
2023/09/28 12:15:48;;;;;;;5.23;2.47;;;23.00;99.90;;;;;;5047012;28;20056;-78
2023/09/28 12:18:15;;;;;;;6.82;2.92;;;23.00;99.90;;;;;;5049186;28;20727;-77
2023/09/28 12:20:42;;;;;;;5.45;3.40;;;23.00;99.90;;;;;;5047308;28;20048;-77
2023/09/28 12:23:09;;;;;;;6.85;2.80;;;23.00;99.90;;;;;;5044580;28;20091;-78
2023/09/28 12:25:36;;;;;;;4.10;2.72;;;23.00;99.90;;;;;;5044849;28;20120;-77
2023/09/28 12:28:03;;;;;;;4.53;2.88;;;23.00;99.90;;;;;;5050963;28;20090;-79
2023/09/28 12:30:30;;;;;;;4.28;2.80;;;23.00;99.90;;;;;;5050236;28;20072;-78
2023/09/28 12:32:57;;;;;;;3.53;2.30;;;23.00;99.90;;;;;;5048420;28;20128;-77
2023/09/28 12:35:24;;;;;;;7.13;2.67;;;23.00;99.90;;;;;;5047005;28;20068;-78
2023/09/28 12:37:51;;;;;;;3.50;2.45;;;23.00;99.90;;;;;;5046615;28;20044;-78
2023/09/28 12:40:18;;;;;;;4.32;2.35;;;23.10;99.90;;;;;;5050166;28;20044;-77
2023/09/28 12:42:45;;;;;;;5.57;3.28;;;23.10;99.90;;;;;;5061291;28;20109;-77
2023/09/28 12:45:12;;;;;;;5.88;3.00;;;23.10;99.90;;;;;;5050626;28;20076;-78
2023/09/28 12:47:39;;;;;;;4.75;2.58;;;23.10;99.90;;;;;;5053385;28;20051;-77
2023/09/28 12:50:06;;;;;;;4.82;2.60;;;23.10;99.90;;;;;;5048538;28;20048;-78
2023/09/28 12:52:33;;;;;;;4.78;2.60;;;23.10;99.90;;;;;;5045005;28;20037;-77
2023/09/28 12:55:00;;;;;;;5.93;3.00;;;23.20;99.90;;;;;;5053339;28;20124;-78